Hauptseite
METAR-TAF:

METAR-TAF

Flughäfen :

Flughafen Sylt

Westerland, Deutschland

Breite: 54-55N, Länge: 008-21E, Höhe: 16 m

Beobachtung

Neuester Wetterbericht von vor 31 Minuten, um 09:20 UTC
Wind 6 kt aus West
Temperatur 16°C
Luftfeuchtigkeit 77%
Luftdruck 1021 hPa
Sichtweite 10 km oder mehr
Leicht bewölkt in der Höhe von 2100 ft, Kumulonimbus.

METAR: EDXW 280920Z 27006KT 9999 FEW021CB 16/12 Q1021

Zeit: 11:51 (09:51 UTC)

Prognose

Neuester Wetterbericht von vor 1 Stunde und 51 Minuten, um 08:00 UTC
Gültige Prognose vom 28 um 09 UTC bis 28 um 18 UTC
Wind 8 kt aus Südwest
Sichtweite 10 km oder mehr
Leicht bewölkt in der Höhe von 3000 ft
Wahrscheinlichkeit 30% :
Zeitweise
vom 28 um 10 UTC bis 28 um 18 UTC
Wind 13 kt aus Südwest
Durchbrochene Bewölkung in der Höhe von 1400 ft, Towering cumulus.
Regenschauer

TAF: EDXW 280800Z 2809/2818 22008KT 9999 FEW030 PROB30 TEMPO 2810/2818 22013KT SHRA BKN014TCU

Wetterbeobachtungen und Prognosen von mehr als 4000 Flughäfen (METAR und TAF Bericht).

Die verfügbaren Stationen werden durch gelbe und rote Markierungen auf der Karte dargestellt.

Führen Sie die Maus auf sie, um den Namen der Station zu sehen.

Darauf klicken, um die Beobachtung von Wetterbeobachtungen und Prognosen zu sehen.

Um die Karte zu ändern : klicken Sie auf den grünen Tasten mit einem schwarzen Kreuz Zum Vergrößern, auf den grünen Button mit einem Gedankenstrich zu verkleinern, oder auf die grünen Pfeile für benachbarte Karten.


METAR-TAF: